sensor_id;sensor_type;location;lat;lon;timestamp;pressure;altitude;pressure_sealevel;temperature;humidity
25560;BME280;13450;49.374;8.584;2023-11-19T00:00:26;100447.03;;;7.86;100.00
25560;BME280;13450;49.374;8.584;2023-11-19T00:02:52;100455.03;;;7.86;100.00
25560;BME280;13450;49.374;8.584;2023-11-19T00:05:17;100454.88;;;7.88;100.00
25560;BME280;13450;49.374;8.584;2023-11-19T00:07:43;100453.03;;;7.88;100.00
25560;BME280;13450;49.374;8.584;2023-11-19T00:12:37;100455.69;;;7.88;100.00
25560;BME280;13450;49.374;8.584;2023-11-19T00:15:08;100451.19;;;7.89;100.00
25560;BME280;13450;49.374;8.584;2023-11-19T00:17:44;100454.03;;;7.87;100.00
25560;BME280;13450;49.374;8.584;2023-11-19T00:20:13;100450.53;;;7.87;100.00
25560;BME280;13450;49.374;8.584;2023-11-19T00:22:39;100445.38;;;7.85;100.00
25560;BME280;13450;49.374;8.584;2023-11-19T00:25:05;100447.03;;;7.86;100.00
25560;BME280;13450;49.374;8.584;2023-11-19T00:27:30;100454.19;;;7.85;100.00
25560;BME280;13450;49.374;8.584;2023-11-19T00:29:56;100447.38;;;7.83;100.00
25560;BME280;13450;49.374;8.584;2023-11-19T00:32:22;100437.19;;;7.87;100.00
25560;BME280;13450;49.374;8.584;2023-11-19T00:34:47;100449.34;;;7.89;100.00
25560;BME280;13450;49.374;8.584;2023-11-19T00:37:13;100432.72;;;7.87;100.00
25560;BME280;13450;49.374;8.584;2023-11-19T00:39:39;100428.56;;;7.84;100.00
25560;BME280;13450;49.374;8.584;2023-11-19T00:42:06;100430.38;;;7.84;100.00
25560;BME280;13450;49.374;8.584;2023-11-19T00:44:31;100420.22;;;7.88;100.00
25560;BME280;13450;49.374;8.584;2023-11-19T00:46:57;100415.06;;;7.86;100.00
25560;BME280;13450;49.374;8.584;2023-11-19T00:49:22;100412.56;;;7.84;100.00
25560;BME280;13450;49.374;8.584;2023-11-19T00:51:47;100424.56;;;7.89;100.00
25560;BME280;13450;49.374;8.584;2023-11-19T00:54:14;100425.38;;;7.89;100.00
25560;BME280;13450;49.374;8.584;2023-11-19T00:56:42;100430.38;;;7.92;100.00
25560;BME280;13450;49.374;8.584;2023-11-19T00:59:07;100439.06;;;7.94;100.00
25560;BME280;13450;49.374;8.584;2023-11-19T01:01:33;100442.69;;;7.93;100.00
25560;BME280;13450;49.374;8.584;2023-11-19T01:04:01;100433.72;;;7.94;100.00
25560;BME280;13450;49.374;8.584;2023-11-19T01:06:30;100422.38;;;7.92;100.00
25560;BME280;13450;49.374;8.584;2023-11-19T01:08:56;100429.19;;;7.95;100.00
25560;BME280;13450;49.374;8.584;2023-11-19T01:11:23;100427.38;;;7.95;100.00
25560;BME280;13450;49.374;8.584;2023-11-19T01:13:48;100421.88;;;7.97;100.00
25560;BME280;13450;49.374;8.584;2023-11-19T01:16:14;100411.41;;;7.95;100.00
25560;BME280;13450;49.374;8.584;2023-11-19T01:18:39;100425.72;;;7.94;100.00
25560;BME280;13450;49.374;8.584;2023-11-19T01:21:05;100422.69;;;7.97;100.00
25560;BME280;13450;49.374;8.584;2023-11-19T01:23:30;100421.03;;;7.96;100.00
25560;BME280;13450;49.374;8.584;2023-11-19T01:25:55;100416.19;;;8.00;100.00
25560;BME280;13450;49.374;8.584;2023-11-19T01:28:21;100427.72;;;8.01;100.00
25560;BME280;13450;49.374;8.584;2023-11-19T01:30:46;100434.38;;;8.05;100.00
25560;BME280;13450;49.374;8.584;2023-11-19T01:33:11;100442.84;;;8.08;100.00
25560;BME280;13450;49.374;8.584;2023-11-19T01:35:36;100430.69;;;8.06;100.00
25560;BME280;13450;49.374;8.584;2023-11-19T01:38:07;100437.69;;;8.07;100.00
25560;BME280;13450;49.374;8.584;2023-11-19T01:40:34;100433.50;;;8.13;100.00
25560;BME280;13450;49.374;8.584;2023-11-19T01:43:01;100428.34;;;8.11;100.00
25560;BME280;13450;49.374;8.584;2023-11-19T01:45:28;100441.03;;;8.09;100.00
25560;BME280;13450;49.374;8.584;2023-11-19T01:48:02;100429.19;;;8.11;100.00
25560;BME280;13450;49.374;8.584;2023-11-19T01:50:36;100432.34;;;8.15;100.00
25560;BME280;13450;49.374;8.584;2023-11-19T01:53:01;100430.34;;;8.17;100.00
25560;BME280;13450;49.374;8.584;2023-11-19T01:55:28;100425.03;;;8.17;100.00
25560;BME280;13450;49.374;8.584;2023-11-19T01:57:55;100429.00;;;8.21;100.00
25560;BME280;13450;49.374;8.584;2023-11-19T02:00:23;100420.31;;;8.28;100.00
25560;BME280;13450;49.374;8.584;2023-11-19T02:02:49;100423.00;;;8.28;100.00
25560;BME280;13450;49.374;8.584;2023-11-19T02:05:15;100411.16;;;8.30;100.00
25560;BME280;13450;49.374;8.584;2023-11-19T02:07:42;100403.66;;;8.25;100.00
25560;BME280;13450;49.374;8.584;2023-11-19T02:10:08;100417.66;;;8.28;100.00
25560;BME280;13450;49.374;8.584;2023-11-19T02:12:39;100394.81;;;8.33;100.00
25560;BME280;13450;49.374;8.584;2023-11-19T02:15:10;100386.66;;;8.35;100.00
25560;BME280;13450;49.374;8.584;2023-11-19T02:17:38;100394.47;;;8.36;100.00
25560;BME280;13450;49.374;8.584;2023-11-19T02:20:04;100401.97;;;8.41;100.00
25560;BME280;13450;49.374;8.584;2023-11-19T02:22:35;100407.47;;;8.31;100.00
25560;BME280;13450;49.374;8.584;2023-11-19T02:25:07;100390.69;;;8.22;100.00
25560;BME280;13450;49.374;8.584;2023-11-19T02:30:16;100382.31;;;8.25;100.00
25560;BME280;13450;49.374;8.584;2023-11-19T02:32:42;100367.16;;;8.26;100.00
25560;BME280;13450;49.374;8.584;2023-11-19T02:35:07;100366.31;;;8.25;100.00
25560;BME280;13450;49.374;8.584;2023-11-19T02:37:35;100359.84;;;8.28;100.00
25560;BME280;13450;49.374;8.584;2023-11-19T02:40:03;100360.66;;;8.29;100.00
25560;BME280;13450;49.374;8.584;2023-11-19T02:42:31;100362.16;;;8.31;100.00
25560;BME280;13450;49.374;8.584;2023-11-19T02:44:57;100360.31;;;8.40;100.00
25560;BME280;13450;49.374;8.584;2023-11-19T02:47:22;100377.25;;;8.47;100.00
25560;BME280;13450;49.374;8.584;2023-11-19T02:49:49;100372.59;;;8.49;100.00
25560;BME280;13450;49.374;8.584;2023-11-19T02:52:15;100367.09;;;8.51;100.00
25560;BME280;13450;49.374;8.584;2023-11-19T02:54:40;100375.28;;;8.58;100.00
25560;BME280;13450;49.374;8.584;2023-11-19T02:57:11;100373.56;;;8.57;100.00
25560;BME280;13450;49.374;8.584;2023-11-19T02:59:39;100365.56;;;8.57;100.00
25560;BME280;13450;49.374;8.584;2023-11-19T03:02:07;100367.59;;;8.55;100.00
25560;BME280;13450;49.374;8.584;2023-11-19T03:04:38;100353.72;;;8.59;100.00
25560;BME280;13450;49.374;8.584;2023-11-19T03:07:08;100342.22;;;8.67;100.00
25560;BME280;13450;49.374;8.584;2023-11-19T03:09:34;100346.97;;;8.80;100.00
25560;BME280;13450;49.374;8.584;2023-11-19T03:12:05;100332.97;;;8.78;100.00
25560;BME280;13450;49.374;8.584;2023-11-19T03:14:33;100324.66;;;8.73;100.00
25560;BME280;13450;49.374;8.584;2023-11-19T03:17:02;100317.78;;;8.79;100.00
25560;BME280;13450;49.374;8.584;2023-11-19T03:19:27;100328.97;;;8.82;100.00
25560;BME280;13450;49.374;8.584;2023-11-19T03:21:52;100316.44;;;8.83;100.00
25560;BME280;13450;49.374;8.584;2023-11-19T03:24:19;100316.38;;;8.91;100.00
25560;BME280;13450;49.374;8.584;2023-11-19T03:26:48;100313.72;;;8.91;100.00
25560;BME280;13450;49.374;8.584;2023-11-19T03:29:15;100319.16;;;8.98;100.00
25560;BME280;13450;49.374;8.584;2023-11-19T03:31:43;100318.16;;;8.99;100.00
25560;BME280;13450;49.374;8.584;2023-11-19T03:34:11;100324.34;;;8.99;100.00
25560;BME280;13450;49.374;8.584;2023-11-19T03:36:36;100318.66;;;9.02;100.00
25560;BME280;13450;49.374;8.584;2023-11-19T03:39:02;100314.13;;;9.03;100.00
25560;BME280;13450;49.374;8.584;2023-11-19T03:41:28;100316.16;;;9.01;100.00
25560;BME280;13450;49.374;8.584;2023-11-19T03:43:58;100309.97;;;9.00;100.00
25560;BME280;13450;49.374;8.584;2023-11-19T03:46:23;100317.97;;;9.00;100.00
25560;BME280;13450;49.374;8.584;2023-11-19T03:48:52;100307.97;;;9.02;100.00
25560;BME280;13450;49.374;8.584;2023-11-19T03:51:17;100321.13;;;9.04;100.00
25560;BME280;13450;49.374;8.584;2023-11-19T03:53:43;100310.94;;;9.08;100.00
25560;BME280;13450;49.374;8.584;2023-11-19T03:56:09;100303.56;;;9.10;100.00
25560;BME280;13450;49.374;8.584;2023-11-19T03:58:35;100307.88;;;9.11;100.00
25560;BME280;13450;49.374;8.584;2023-11-19T04:01:01;100300.19;;;9.16;100.00
25560;BME280;13450;49.374;8.584;2023-11-19T04:03:26;100311.50;;;9.18;100.00
25560;BME280;13450;49.374;8.584;2023-11-19T04:05:52;100306.00;;;9.20;100.00
25560;BME280;13450;49.374;8.584;2023-11-19T04:08:17;100296.34;;;9.19;100.00
25560;BME280;13450;49.374;8.584;2023-11-19T04:10:42;100298.00;;;9.20;100.00
25560;BME280;13450;49.374;8.584;2023-11-19T04:13:07;100301.78;;;9.25;100.00
25560;BME280;13450;49.374;8.584;2023-11-19T04:15:33;100299.75;;;9.27;100.00
25560;BME280;13450;49.374;8.584;2023-11-19T04:17:58;100299.03;;;9.34;100.00
25560;BME280;13450;49.374;8.584;2023-11-19T04:20:23;100304.78;;;9.46;100.00
25560;BME280;13450;49.374;8.584;2023-11-19T04:22:50;100293.25;;;9.45;100.00
25560;BME280;13450;49.374;8.584;2023-11-19T04:25:16;100305.44;;;9.48;100.00
25560;BME280;13450;49.374;8.584;2023-11-19T04:27:43;100318.25;;;9.52;100.00
25560;BME280;13450;49.374;8.584;2023-11-19T04:30:16;100313.19;;;9.58;100.00
25560;BME280;13450;49.374;8.584;2023-11-19T04:32:46;100319.91;;;9.53;100.00
25560;BME280;13450;49.374;8.584;2023-11-19T04:35:13;100314.56;;;9.53;100.00
25560;BME280;13450;49.374;8.584;2023-11-19T04:37:39;100322.84;;;9.59;100.00
25560;BME280;13450;49.374;8.584;2023-11-19T04:40:04;100312.81;;;9.61;100.00
25560;BME280;13450;49.374;8.584;2023-11-19T04:42:30;100309.78;;;9.64;100.00
25560;BME280;13450;49.374;8.584;2023-11-19T04:44:57;100313.13;;;9.66;100.00
25560;BME280;13450;49.374;8.584;2023-11-19T04:47:22;100311.06;;;9.68;100.00
25560;BME280;13450;49.374;8.584;2023-11-19T04:49:47;100299.19;;;9.71;100.00
25560;BME280;13450;49.374;8.584;2023-11-19T04:52:13;100302.72;;;9.71;100.00
25560;BME280;13450;49.374;8.584;2023-11-19T04:54:42;100292.81;;;9.72;100.00
25560;BME280;13450;49.374;8.584;2023-11-19T04:57:10;100296.97;;;9.74;100.00
25560;BME280;13450;49.374;8.584;2023-11-19T04:59:36;100305.47;;;9.78;100.00
25560;BME280;13450;49.374;8.584;2023-11-19T05:02:02;100301.59;;;9.80;100.00
25560;BME280;13450;49.374;8.584;2023-11-19T05:04:29;100297.72;;;9.83;100.00
25560;BME280;13450;49.374;8.584;2023-11-19T05:06:54;100292.56;;;9.81;100.00
25560;BME280;13450;49.374;8.584;2023-11-19T05:09:19;100289.53;;;9.85;100.00
25560;BME280;13450;49.374;8.584;2023-11-19T05:11:45;100301.13;;;9.92;100.00
25560;BME280;13450;49.374;8.584;2023-11-19T05:14:10;100282.16;;;9.87;100.00
25560;BME280;13450;49.374;8.584;2023-11-19T05:16:35;100295.16;;;9.90;100.00
25560;BME280;13450;49.374;8.584;2023-11-19T05:19:00;100292.47;;;9.90;100.00
25560;BME280;13450;49.374;8.584;2023-11-19T05:21:26;100281.44;;;9.93;100.00
25560;BME280;13450;49.374;8.584;2023-11-19T05:23:51;100286.78;;;9.93;100.00
25560;BME280;13450;49.374;8.584;2023-11-19T05:26:18;100286.56;;;9.94;100.00
25560;BME280;13450;49.374;8.584;2023-11-19T05:28:44;100295.06;;;9.98;100.00
25560;BME280;13450;49.374;8.584;2023-11-19T05:31:09;100292.00;;;10.01;100.00
25560;BME280;13450;49.374;8.584;2023-11-19T05:33:34;100292.66;;;10.03;100.00
25560;BME280;13450;49.374;8.584;2023-11-19T05:36:00;100306.03;;;10.03;100.00
25560;BME280;13450;49.374;8.584;2023-11-19T05:38:30;100299.66;;;10.04;100.00
25560;BME280;13450;49.374;8.584;2023-11-19T05:40:56;100297.25;;;10.10;100.00
25560;BME280;13450;49.374;8.584;2023-11-19T05:43:21;100290.09;;;10.10;100.00
25560;BME280;13450;49.374;8.584;2023-11-19T05:45:47;100291.19;;;10.16;100.00
25560;BME280;13450;49.374;8.584;2023-11-19T05:48:12;100292.84;;;10.17;100.00
25560;BME280;13450;49.374;8.584;2023-11-19T05:50:38;100290.78;;;10.19;100.00
25560;BME280;13450;49.374;8.584;2023-11-19T05:53:06;100278.09;;;10.21;100.00
25560;BME280;13450;49.374;8.584;2023-11-19T05:55:34;100282.41;;;10.22;100.00
25560;BME280;13450;49.374;8.584;2023-11-19T05:58:00;100267.84;;;10.25;100.00
25560;BME280;13450;49.374;8.584;2023-11-19T06:00:25;100268.28;;;10.28;100.00
25560;BME280;13450;49.374;8.584;2023-11-19T06:02:54;100271.97;;;10.27;100.00
25560;BME280;13450;49.374;8.584;2023-11-19T06:05:19;100255.31;;;10.25;100.00
25560;BME280;13450;49.374;8.584;2023-11-19T06:07:47;100255.56;;;10.30;100.00
25560;BME280;13450;49.374;8.584;2023-11-19T06:10:12;100264.22;;;10.32;100.00
25560;BME280;13450;49.374;8.584;2023-11-19T06:12:44;100265.50;;;10.37;100.00
25560;BME280;13450;49.374;8.584;2023-11-19T06:15:11;100269.19;;;10.36;100.00
25560;BME280;13450;49.374;8.584;2023-11-19T06:17:39;100275.22;;;10.38;100.00
25560;BME280;13450;49.374;8.584;2023-11-19T06:20:05;100273.44;;;10.45;100.00
25560;BME280;13450;49.374;8.584;2023-11-19T06:22:32;100275.75;;;10.48;100.00
25560;BME280;13450;49.374;8.584;2023-11-19T06:25:01;100289.13;;;10.48;100.00
25560;BME280;13450;49.374;8.584;2023-11-19T06:27:26;100284.66;;;10.55;100.00
25560;BME280;13450;49.374;8.584;2023-11-19T06:29:51;100273.59;;;10.58;100.00
25560;BME280;13450;49.374;8.584;2023-11-19T06:32:17;100271.59;;;10.61;100.00
25560;BME280;13450;49.374;8.584;2023-11-19T06:34:42;100285.94;;;10.59;100.00
25560;BME280;13450;49.374;8.584;2023-11-19T06:37:07;100276.53;;;10.64;100.00
25560;BME280;13450;49.374;8.584;2023-11-19T06:39:33;100290.81;;;10.71;100.00
25560;BME280;13450;49.374;8.584;2023-11-19T06:42:00;100280.75;;;10.73;100.00
25560;BME280;13450;49.374;8.584;2023-11-19T06:44:25;100278.06;;;10.73;100.00
25560;BME280;13450;49.374;8.584;2023-11-19T06:46:53;100278.72;;;10.75;100.00
25560;BME280;13450;49.374;8.584;2023-11-19T06:49:18;100275.03;;;10.76;100.00
25560;BME280;13450;49.374;8.584;2023-11-19T06:51:44;100281.78;;;10.72;100.00
25560;BME280;13450;49.374;8.584;2023-11-19T06:54:09;100274.41;;;10.74;100.00
25560;BME280;13450;49.374;8.584;2023-11-19T06:56:34;100289.78;;;10.72;100.00
25560;BME280;13450;49.374;8.584;2023-11-19T06:59:00;100280.75;;;10.73;100.00
25560;BME280;13450;49.374;8.584;2023-11-19T07:01:25;100294.78;;;10.75;100.00
25560;BME280;13450;49.374;8.584;2023-11-19T07:03:50;100311.88;;;10.74;100.00
25560;BME280;13450;49.374;8.584;2023-11-19T07:06:16;100320.53;;;10.76;100.00
25560;BME280;13450;49.374;8.584;2023-11-19T07:08:42;100303.63;;;10.76;100.00
25560;BME280;13450;49.374;8.584;2023-11-19T07:11:10;100307.75;;;10.78;100.00
25560;BME280;13450;49.374;8.584;2023-11-19T07:13:37;100317.06;;;10.82;100.00
25560;BME280;13450;49.374;8.584;2023-11-19T07:16:02;100311.53;;;10.84;100.00
25560;BME280;13450;49.374;8.584;2023-11-19T07:18:28;100302.69;;;10.83;100.00
25560;BME280;13450;49.374;8.584;2023-11-19T07:20:54;100300.28;;;10.89;100.00
25560;BME280;13450;49.374;8.584;2023-11-19T07:23:19;100307.66;;;10.86;100.00
25560;BME280;13450;49.374;8.584;2023-11-19T07:25:49;100310.56;;;10.92;100.00
25560;BME280;13450;49.374;8.584;2023-11-19T07:28:18;100320.91;;;10.95;100.00
25560;BME280;13450;49.374;8.584;2023-11-19T07:30:44;100315.94;;;10.92;100.00
25560;BME280;13450;49.374;8.584;2023-11-19T07:33:09;100335.69;;;10.91;100.00
25560;BME280;13450;49.374;8.584;2023-11-19T07:35:34;100338.63;;;10.96;100.00
25560;BME280;13450;49.374;8.584;2023-11-19T07:38:00;100343.19;;;10.95;100.00
25560;BME280;13450;49.374;8.584;2023-11-19T07:40:25;100339.28;;;10.98;100.00
25560;BME280;13450;49.374;8.584;2023-11-19T07:42:50;100348.97;;;10.99;100.00
25560;BME280;13450;49.374;8.584;2023-11-19T07:45:16;100358.03;;;10.98;100.00
25560;BME280;13450;49.374;8.584;2023-11-19T07:47:44;100352.66;;;10.98;100.00
25560;BME280;13450;49.374;8.584;2023-11-19T07:50:12;100349.34;;;10.96;100.00
25560;BME280;13450;49.374;8.584;2023-11-19T07:52:44;100354.06;;;10.94;100.00
25560;BME280;13450;49.374;8.584;2023-11-19T07:55:09;100348.06;;;10.92;100.00
25560;BME280;13450;49.374;8.584;2023-11-19T07:57:34;100342.34;;;10.95;100.00
25560;BME280;13450;49.374;8.584;2023-11-19T08:00:00;100348.47;;;10.89;100.00
25560;BME280;13450;49.374;8.584;2023-11-19T08:02:26;100352.78;;;10.90;100.00
25560;BME280;13450;49.374;8.584;2023-11-19T08:04:52;100354.63;;;10.89;100.00
25560;BME280;13450;49.374;8.584;2023-11-19T08:07:18;100357.50;;;10.88;100.00
25560;BME280;13450;49.374;8.584;2023-11-19T08:09:45;100356.31;;;10.90;100.00
25560;BME280;13450;49.374;8.584;2023-11-19T08:12:11;100356.50;;;10.89;100.00
25560;BME280;13450;49.374;8.584;2023-11-19T08:14:38;100357.13;;;10.91;100.00
25560;BME280;13450;49.374;8.584;2023-11-19T08:17:03;100360.63;;;10.91;100.00
25560;BME280;13450;49.374;8.584;2023-11-19T08:19:28;100371.16;;;10.93;100.00
25560;BME280;13450;49.374;8.584;2023-11-19T08:21:54;100374.91;;;10.98;100.00
25560;BME280;13450;49.374;8.584;2023-11-19T08:24:21;100373.72;;;11.01;100.00
25560;BME280;13450;49.374;8.584;2023-11-19T08:26:46;100368.44;;;11.08;100.00
25560;BME280;13450;49.374;8.584;2023-11-19T08:29:14;100356.69;;;11.09;100.00
25560;BME280;13450;49.374;8.584;2023-11-19T08:31:39;100357.78;;;11.15;100.00
25560;BME280;13450;49.374;8.584;2023-11-19T08:34:05;100359.94;;;11.26;100.00
25560;BME280;13450;49.374;8.584;2023-11-19T08:36:33;100353.00;;;11.32;100.00
25560;BME280;13450;49.374;8.584;2023-11-19T08:39:01;100350.31;;;11.32;100.00
25560;BME280;13450;49.374;8.584;2023-11-19T08:41:26;100358.84;;;11.42;100.00
25560;BME280;13450;49.374;8.584;2023-11-19T08:43:54;100354.19;;;11.51;100.00
25560;BME280;13450;49.374;8.584;2023-11-19T08:46:20;100361.56;;;11.71;100.00
25560;BME280;13450;49.374;8.584;2023-11-19T08:48:45;100347.69;;;11.89;100.00
25560;BME280;13450;49.374;8.584;2023-11-19T08:51:13;100340.34;;;12.04;100.00
25560;BME280;13450;49.374;8.584;2023-11-19T08:53:38;100338.34;;;12.13;100.00
25560;BME280;13450;49.374;8.584;2023-11-19T08:56:06;100348.28;;;12.20;100.00
25560;BME280;13450;49.374;8.584;2023-11-19T08:58:31;100345.69;;;12.33;100.00
25560;BME280;13450;49.374;8.584;2023-11-19T09:00:59;100339.72;;;12.45;100.00
25560;BME280;13450;49.374;8.584;2023-11-19T09:03:25;100343.69;;;12.49;100.00
25560;BME280;13450;49.374;8.584;2023-11-19T09:05:52;100339.00;;;12.64;100.00
25560;BME280;13450;49.374;8.584;2023-11-19T09:08:17;100348.75;;;12.79;100.00
25560;BME280;13450;49.374;8.584;2023-11-19T09:10:42;100339.88;;;12.85;100.00
25560;BME280;13450;49.374;8.584;2023-11-19T09:13:08;100342.28;;;12.66;100.00
25560;BME280;13450;49.374;8.584;2023-11-19T09:15:36;100350.91;;;12.48;100.00
25560;BME280;13450;49.374;8.584;2023-11-19T09:18:04;100350.47;;;12.45;100.00
25560;BME280;13450;49.374;8.584;2023-11-19T09:20:29;100348.25;;;12.55;100.00
25560;BME280;13450;49.374;8.584;2023-11-19T09:23:02;100344.16;;;12.66;100.00
25560;BME280;13450;49.374;8.584;2023-11-19T09:25:28;100349.78;;;12.78;100.00
25560;BME280;13450;49.374;8.584;2023-11-19T09:27:53;100341.13;;;12.89;100.00
25560;BME280;13450;49.374;8.584;2023-11-19T09:30:19;100350.47;;;13.07;100.00
25560;BME280;13450;49.374;8.584;2023-11-19T09:32:44;100339.13;;;13.39;100.00
25560;BME280;13450;49.374;8.584;2023-11-19T09:35:09;100344.06;;;13.35;100.00
25560;BME280;13450;49.374;8.584;2023-11-19T09:37:38;100333.75;;;13.25;100.00
25560;BME280;13450;49.374;8.584;2023-11-19T09:40:04;100341.19;;;13.30;100.00
25560;BME280;13450;49.374;8.584;2023-11-19T09:42:32;100347.03;;;13.54;100.00
25560;BME280;13450;49.374;8.584;2023-11-19T09:45:07;100349.09;;;13.65;100.00
25560;BME280;13450;49.374;8.584;2023-11-19T09:47:37;100349.91;;;13.66;100.00
25560;BME280;13450;49.374;8.584;2023-11-19T09:50:08;100342.84;;;13.71;100.00
25560;BME280;13450;49.374;8.584;2023-11-19T09:52:34;100338.50;;;13.84;100.00
25560;BME280;13450;49.374;8.584;2023-11-19T09:54:59;100347.00;;;13.94;100.00
25560;BME280;13450;49.374;8.584;2023-11-19T09:57:25;100353.13;;;14.15;100.00
25560;BME280;13450;49.374;8.584;2023-11-19T09:59:51;100350.25;;;14.17;100.00
25560;BME280;13450;49.374;8.584;2023-11-19T10:02:18;100344.84;;;14.17;100.00
25560;BME280;13450;49.374;8.584;2023-11-19T10:04:45;100348.38;;;14.17;100.00
25560;BME280;13450;49.374;8.584;2023-11-19T10:07:12;100333.19;;;14.36;100.00
25560;BME280;13450;49.374;8.584;2023-11-19T10:09:37;100329.53;;;14.76;100.00
25560;BME280;13450;49.374;8.584;2023-11-19T10:12:03;100324.81;;;15.80;100.00
25560;BME280;13450;49.374;8.584;2023-11-19T10:14:31;100325.63;;;16.06;100.00
25560;BME280;13450;49.374;8.584;2023-11-19T10:16:56;100327.19;;;16.64;100.00
25560;BME280;13450;49.374;8.584;2023-11-19T10:19:22;100338.63;;;17.51;100.00
25560;BME280;13450;49.374;8.584;2023-11-19T10:21:48;100328.34;;;18.25;100.00
25560;BME280;13450;49.374;8.584;2023-11-19T10:24:33;100320.31;;;18.30;100.00
25560;BME280;13450;49.374;8.584;2023-11-19T10:27:01;100312.44;;;19.90;100.00
25560;BME280;13450;49.374;8.584;2023-11-19T10:29:29;100320.34;;;21.13;100.00
25560;BME280;13450;49.374;8.584;2023-11-19T10:31:58;100315.28;;;21.22;100.00
25560;BME280;13450;49.374;8.584;2023-11-19T10:34:27;100310.94;;;21.26;100.00
25560;BME280;13450;49.374;8.584;2023-11-19T10:36:52;100314.88;;;21.84;95.53
25560;BME280;13450;49.374;8.584;2023-11-19T10:39:18;100311.88;;;21.42;93.86
25560;BME280;13450;49.374;8.584;2023-11-19T10:41:46;100309.44;;;22.53;90.05
25560;BME280;13450;49.374;8.584;2023-11-19T10:44:11;100299.41;;;22.85;88.48
25560;BME280;13450;49.374;8.584;2023-11-19T10:46:41;100297.31;;;22.07;90.24
25560;BME280;13450;49.374;8.584;2023-11-19T10:49:07;100303.94;;;23.99;80.43
25560;BME280;13450;49.374;8.584;2023-11-19T10:51:33;100299.84;;;24.12;73.86
25560;BME280;13450;49.374;8.584;2023-11-19T10:54:03;100290.94;;;23.59;73.12
25560;BME280;13450;49.374;8.584;2023-11-19T10:56:33;100296.22;;;20.89;95.89
25560;BME280;13450;49.374;8.584;2023-11-19T10:58:59;100288.81;;;18.24;100.00
25560;BME280;13450;49.374;8.584;2023-11-19T11:01:27;100281.56;;;17.88;100.00
25560;BME280;13450;49.374;8.584;2023-11-19T11:03:59;100281.34;;;17.30;100.00
25560;BME280;13450;49.374;8.584;2023-11-19T11:06:26;100277.19;;;16.73;100.00
25560;BME280;13450;49.374;8.584;2023-11-19T11:08:53;100287.78;;;15.88;100.00
25560;BME280;13450;49.374;8.584;2023-11-19T11:11:19;100282.09;;;15.77;100.00
25560;BME280;13450;49.374;8.584;2023-11-19T11:13:50;100280.06;;;15.73;100.00
25560;BME280;13450;49.374;8.584;2023-11-19T11:16:18;100281.91;;;15.53;100.00
25560;BME280;13450;49.374;8.584;2023-11-19T11:18:44;100291.56;;;15.17;100.00
25560;BME280;13450;49.374;8.584;2023-11-19T11:21:13;100290.97;;;15.34;100.00
25560;BME280;13450;49.374;8.584;2023-11-19T11:30:05;100286.22;;;15.10;100.00
25560;BME280;13450;49.374;8.584;2023-11-19T11:32:50;100298.28;;;16.52;100.00
25560;BME280;13450;49.374;8.584;2023-11-19T11:37:50;100266.72;;;19.81;100.00
25560;BME280;13450;49.374;8.584;2023-11-19T11:40:18;100279.94;;;19.95;97.74
25560;BME280;13450;49.374;8.584;2023-11-19T11:42:46;100257.97;;;21.82;84.65
25560;BME280;13450;49.374;8.584;2023-11-19T11:45:15;100254.31;;;21.66;81.31
25560;BME280;13450;49.374;8.584;2023-11-19T11:55:27;100246.09;;;23.76;62.48
25560;BME280;13450;49.374;8.584;2023-11-19T11:57:53;100244.66;;;25.73;54.45
25560;BME280;13450;49.374;8.584;2023-11-19T12:00:26;100256.63;;;28.02;47.18
25560;BME280;13450;49.374;8.584;2023-11-19T12:02:51;100249.84;;;28.22;44.03
25560;BME280;13450;49.374;8.584;2023-11-19T12:05:16;100256.22;;;26.14;47.93
25560;BME280;13450;49.374;8.584;2023-11-19T12:08:00;100253.94;;;26.41;47.89
25560;BME280;13450;49.374;8.584;2023-11-19T12:10:29;100265.94;;;24.98;49.91
25560;BME280;13450;49.374;8.584;2023-11-19T12:13:00;100247.09;;;27.10;48.03
25560;BME280;13450;49.374;8.584;2023-11-19T12:15:28;100250.91;;;25.98;46.79
25560;BME280;13450;49.374;8.584;2023-11-19T12:17:54;100258.84;;;26.63;46.25
25560;BME280;13450;49.374;8.584;2023-11-19T12:20:24;100252.69;;;26.71;46.06
25560;BME280;13450;49.374;8.584;2023-11-19T12:22:50;100255.88;;;25.47;47.04
25560;BME280;13450;49.374;8.584;2023-11-19T12:25:17;100248.22;;;24.50;57.42
25560;BME280;13450;49.374;8.584;2023-11-19T12:28:00;100252.25;;;23.16;57.02
25560;BME280;13450;49.374;8.584;2023-11-19T12:30:31;100245.94;;;23.20;54.15
25560;BME280;13450;49.374;8.584;2023-11-19T12:33:08;100259.13;;;21.11;66.98
25560;BME280;13450;49.374;8.584;2023-11-19T12:35:53;100243.34;;;21.08;67.92
25560;BME280;13450;49.374;8.584;2023-11-19T12:38:23;100234.97;;;24.28;64.76
25560;BME280;13450;49.374;8.584;2023-11-19T12:41:05;100234.44;;;25.01;53.77
25560;BME280;13450;49.374;8.584;2023-11-19T12:43:30;100228.31;;;24.85;52.46
25560;BME280;13450;49.374;8.584;2023-11-19T12:45:56;100240.66;;;24.37;52.40
25560;BME280;13450;49.374;8.584;2023-11-19T12:48:21;100234.59;;;24.80;54.87
25560;BME280;13450;49.374;8.584;2023-11-19T12:53:20;100229.22;;;26.27;54.76
25560;BME280;13450;49.374;8.584;2023-11-19T12:55:45;100227.13;;;25.20;47.74
25560;BME280;13450;49.374;8.584;2023-11-19T12:58:28;100220.44;;;23.77;52.78
25560;BME280;13450;49.374;8.584;2023-11-19T13:00:59;100229.53;;;24.17;51.84
25560;BME280;13450;49.374;8.584;2023-11-19T13:03:31;100223.25;;;26.58;44.67
25560;BME280;13450;49.374;8.584;2023-11-19T13:06:15;100212.47;;;24.41;48.78
25560;BME280;13450;49.374;8.584;2023-11-19T13:08:48;100211.63;;;21.72;55.74